KHIO

Portland-Hillsboro Airport

Portland, Oregon, USA
KHIO 202337Z 2100/2124 VRB03KT P6SM FEW060 OVC100 FM210500 20005KT P6SM BKN040 OVC090 FM210700 19013KT P6SM -RA SCT030 OVC040 FM211100 22008KT P6SM -SHRA BKN050 FM211800 33004KT P6SM SCT040
Issued Valid From Valid To
Apr-20 @ 23:37 UTC
(4 hours ago)
Apr-21 @ 00:00 UTC
(4 hours ago)
Apr-22 @ 00:00 UTC
(in 20 hours)
Apr-21 @ 00:00 to Apr-21 @ 05:00
KHIO 202337Z 2100/2124 VRB03KT P6SM FEW060 OVC100
Wind Visibility Clouds
Variable at 3 knots Greater than 6 miles
  • Few at 6,000' AGL
  • Overcast at 10,000' AGL
From Apr-21 @ 05:00 to Apr-21 @ 07:00
FM210500 20005KT P6SM BKN040 OVC090
Wind Visibility Clouds
200° at 5 knots Greater than 6 miles
  • Broken at 4,000' AGL
  • Overcast at 9,000' AGL
From Apr-21 @ 07:00 to Apr-21 @ 11:00
FM210700 19013KT P6SM -RA SCT030 OVC040
Wind Visibility Clouds Conditions
190° at 13 knots Greater than 6 miles
  • Scattered at 3,000' AGL
  • Overcast at 4,000' AGL
  • Light Rain
From Apr-21 @ 11:00 to Apr-21 @ 18:00
FM211100 22008KT P6SM -SHRA BKN050
Wind Visibility Clouds Conditions
220° at 8 knots Greater than 6 miles
  • Broken at 5,000' AGL
  • Light Rain
From Apr-21 @ 18:00 to Apr-22 @ 00:00
FM211800 33004KT P6SM SCT040
Wind Visibility Clouds
330° at 4 knots Greater than 6 miles
  • Scattered at 4,000' AGL
KHIO 202337Z 2100/2124 VRB03KT P6SM FEW060 OVC100 FM210500 20005KT P6SM BKN040 OVC090 FM210700 19013KT P6SM -RA SCT030 OVC040 FM211100 22008KT P6SM -SHRA BKN050 FM211800 33004KT P6SM SCT040
Issued Apr-20 @ 23:37 UTC
(4 hours ago)
Valid From Apr-21 @ 00:00 UTC
(4 hours ago)
Valid To Apr-22 @ 00:00 UTC
(in 20 hours)
Apr-21 @ 00:00 - Apr-21 @ 05:00
Wind Visibility
Variable at 3 knots Greater than 6 miles
Clouds
  • Few at 6,000' AGL
  • Overcast at 10,000' AGL
From Apr-21 @ 05:00 - Apr-21 @ 07:00
Wind Visibility
200° at 5 knots Greater than 6 miles
Clouds
  • Broken at 4,000' AGL
  • Overcast at 9,000' AGL
From Apr-21 @ 07:00 - Apr-21 @ 11:00
Wind Visibility
190° at 13 knots Greater than 6 miles
Clouds
  • Scattered at 3,000' AGL
  • Overcast at 4,000' AGL
Conditions
  • Light Rain
From Apr-21 @ 11:00 - Apr-21 @ 18:00
Wind Visibility
220° at 8 knots Greater than 6 miles
Clouds
  • Broken at 5,000' AGL
Conditions
  • Light Rain
From Apr-21 @ 18:00 - Apr-22 @ 00:00
Wind Visibility
330° at 4 knots Greater than 6 miles
Clouds
  • Scattered at 4,000' AGL